Falmouth, Massachusetts
Current Conditions -  °F | °C
As of 9:55 PM on Wednesday 22 Oct 2014 (Local Time) from KFMH Reporting Station
Thunderstorm Thunderstorm  
Wind Chill: 57°   Ceiling: 400
Heat Index: 57°   Visibility: 2mi
Dew Point: 55°   Wind: 24mph
Humidity: 94%   Direction: 50°NE
Pressure: 29.7"   Gusts: 44mph
Location:  41.55°N, 70.61°W
Report Text: KFMH 230155Z AUTO 05021G38KT 2SM TS OVC004 14/13 A2970 RMK AO2 LTG DSNT ALQDS
Loading
Personal Weather Stations






























Interactive Weather Map
Tropical Storm Tracking
New forecast layout! Learn more

10-Day Weather Forecast

Advertisements
Track Severe Weather on mobile